WXM80 ListenWXM80 Stop

You find our weather info also at:

UK Metoffice

WeatherCloud

Weather Underground

Northeastern Weather Network

AWEKAS

Citizen Weather Observer Program (CWOP)

HAMweather, WeatherForYou, PWS Weather


Weather Underground History page Text

Daily Summary for October 12, 2016 Units:  English    Metric   Both
« Previous Day
Next Day »
Daily Weekly Monthly Yearly Custom
  High: Low: Average:
Temperature: 65.0 °F 46.3 °F 55.6 °F
Dew Point: 55.4 °F 44.7 °F 51.1 °F
Humidity: 98 % 65 % 86 %
Wind Speed: 3.0 mph 0.0 mph 0.4 mph
Wind Gust: 8.0 mph - -
Wind:- - SSE
Pressure: 30.38 in 30.17 in -
Precipitation: 0.00 in    
Historical Graphs
 
 
Tabular Data for October 12, 2016
Time Temperature Dew Point Pressure Wind Wind Speed Wind Gust Humidity Rainfall Rate (Hourly)
00:00 49.0 °F 46.5 °F 30.38 in Calm     91 % 0.00 in
00:05 49.0 °F 46.5 °F 30.38 in Calm     91 % 0.00 in
00:10 49.0 °F 46.5 °F 30.38 in Calm     91 % 0.00 in
00:15 49.0 °F 46.5 °F 30.38 in Calm     91 % 0.00 in
00:21 49.0 °F 46.5 °F 30.38 in Calm     91 % 0.00 in
00:26 49.0 °F 46.5 °F 30.38 in Calm     91 % 0.00 in
00:31 49.0 °F 46.5 °F 30.38 in Calm     91 % 0.00 in
00:36 48.9 °F 46.7 °F 30.38 in Calm     92 % 0.00 in
00:41 48.9 °F 46.7 °F 30.38 in Calm     92 % 0.00 in
00:46 48.9 °F 46.7 °F 30.38 in Calm     92 % 0.00 in
00:51 48.8 °F 46.6 °F 30.38 in Calm     92 % 0.00 in
00:56 48.8 °F 46.6 °F 30.37 in Calm     92 % 0.00 in
01:01 48.8 °F 46.6 °F 30.37 in Calm     92 % 0.00 in
01:06 48.7 °F 46.2 °F 30.37 in Calm     91 % 0.00 in
01:11 48.7 °F 46.2 °F 30.37 in Calm     91 % 0.00 in
01:16 48.6 °F 46.1 °F 30.37 in Calm     91 % 0.00 in
01:21 48.5 °F 46.0 °F 30.37 in Calm     91 % 0.00 in
01:26 48.5 °F 46.0 °F 30.37 in Calm     91 % 0.00 in
01:31 48.4 °F 46.2 °F 30.37 in Calm     92 % 0.00 in
01:36 48.3 °F 46.1 °F 30.37 in Calm     92 % 0.00 in
01:41 48.2 °F 46.0 °F 30.37 in Calm     92 % 0.00 in
01:47 48.2 °F 46.0 °F 30.37 in Calm     92 % 0.00 in
01:52 48.1 °F 45.9 °F 30.37 in Calm     92 % 0.00 in
01:57 48.0 °F 45.8 °F 30.37 in Calm     92 % 0.00 in
02:02 47.9 °F 45.7 °F 30.36 in Calm     92 % 0.00 in
02:07 47.8 °F 45.6 °F 30.37 in Calm     92 % 0.00 in
02:12 47.7 °F 45.5 °F 30.36 in Calm     92 % 0.00 in
02:17 47.7 °F 45.5 °F 30.36 in Calm     92 % 0.00 in
02:22 47.6 °F 45.4 °F 30.36 in Calm     92 % 0.00 in
02:27 47.6 °F 45.4 °F 30.37 in Calm     92 % 0.00 in
02:32 47.5 °F 45.6 °F 30.36 in Calm     93 % 0.00 in
02:38 47.5 °F 45.6 °F 30.36 in Calm     93 % 0.00 in
02:43 47.4 °F 45.5 °F 30.36 in Calm     93 % 0.00 in
02:48 47.5 °F 45.6 °F 30.36 in Calm     93 % 0.00 in
02:53 47.4 °F 45.5 °F 30.36 in Calm     93 % 0.00 in
02:58 47.4 °F 45.5 °F 30.36 in Calm     93 % 0.00 in
03:03 47.4 °F 45.5 °F 30.37 in Calm     93 % 0.00 in
03:08 47.4 °F 45.5 °F 30.37 in Calm     93 % 0.00 in
03:18 47.3 °F 45.4 °F 30.37 in Calm     93 % 0.00 in
03:23 47.3 °F 45.4 °F 30.37 in Calm     93 % 0.00 in
03:29 47.3 °F 45.4 °F 30.36 in Calm     93 % 0.00 in
03:34 47.3 °F 45.4 °F 30.36 in Calm     93 % 0.00 in
03:39 47.3 °F 45.7 °F 30.37 in Calm     94 % 0.00 in
03:44 47.3 °F 45.7 °F 30.36 in Calm     94 % 0.00 in
03:49 47.4 °F 45.8 °F 30.36 in Calm     94 % 0.00 in
03:54 47.5 °F 45.9 °F 30.36 in Calm     94 % 0.00 in
04:04 47.6 °F 46.0 °F 30.36 in Calm     94 % 0.00 in
04:09 47.7 °F 46.1 °F 30.36 in Calm     94 % 0.00 in
04:14 47.7 °F 46.1 °F 30.36 in Calm     94 % 0.00 in
04:20 47.8 °F 46.2 °F 30.36 in Calm     94 % 0.00 in
04:25 47.8 °F 46.2 °F 30.36 in Calm     94 % 0.00 in
04:30 47.8 °F 46.2 °F 30.35 in Calm     94 % 0.00 in
04:35 47.8 °F 46.2 °F 30.36 in Calm     94 % 0.00 in
04:40 47.8 °F 46.2 °F 30.35 in Calm     94 % 0.00 in
04:45 47.8 °F 46.2 °F 30.35 in Calm     94 % 0.00 in
04:50 47.9 °F 46.5 °F 30.36 in Calm     95 % 0.00 in
04:55 47.8 °F 46.4 °F 30.36 in Calm     95 % 0.00 in
05:00 47.8 °F 46.2 °F 30.35 in Calm     94 % 0.00 in
05:05 47.7 °F 46.1 °F 30.35 in Calm     94 % 0.00 in
05:11 47.7 °F 46.0 °F 30.35 in Calm     94 % 0.00 in
05:16 47.5 °F 45.9 °F 30.35 in Calm     94 % 0.00 in
05:21 47.4 °F 45.8 °F 30.35 in Calm     94 % 0.00 in
05:26 47.3 °F 45.7 °F 30.35 in Calm     94 % 0.00 in
05:31 47.2 °F 45.6 °F 30.35 in Calm     94 % 0.00 in
05:36 47.2 °F 45.5 °F 30.35 in Calm     94 % 0.00 in
05:41 47.1 °F 45.5 °F 30.36 in Calm     94 % 0.00 in
05:45 47.0 °F 45.4 °F 30.35 in Calm     94 % 0.00 in
05:51 47.0 °F 45.4 °F 30.35 in Calm     94 % 0.00 in
05:56 47.0 °F 45.4 °F 30.35 in Calm     94 % 0.00 in
06:01 46.9 °F 45.3 °F 30.35 in Calm     94 % 0.00 in
06:06 46.9 °F 45.3 °F 30.35 in Calm     94 % 0.00 in
06:11 46.9 °F 45.3 °F 30.35 in Calm     94 % 0.00 in
06:16 46.8 °F 45.2 °F 30.35 in Calm     94 % 0.00 in
06:21 46.8 °F 45.2 °F 30.35 in Calm     94 % 0.00 in
06:26 46.7 °F 45.1 °F 30.35 in Calm     94 % 0.00 in
06:31 46.7 °F 45.1 °F 30.35 in Calm     94 % 0.00 in
06:36 46.6 °F 45.0 °F 30.35 in Calm     94 % 0.00 in
06:41 46.6 °F 45.0 °F 30.35 in Calm     94 % 0.00 in
06:47 46.5 °F 44.9 °F 30.35 in Calm     94 % 0.00 in
06:57 46.5 °F 44.9 °F 30.34 in Calm     94 % 0.00 in
07:02 46.4 °F 44.8 °F 30.34 in Calm     94 % 0.00 in
07:07 46.3 °F 44.7 °F 30.34 in Calm     94 % 0.00 in
07:12 46.3 °F 44.7 °F 30.34 in Calm     94 % 0.00 in
07:17 46.3 °F 44.7 °F 30.35 in Calm     94 % 0.00 in
07:22 46.3 °F 44.7 °F 30.34 in Calm     94 % 0.00 in
07:27 46.3 °F 44.9 °F 30.34 in Calm     95 % 0.00 in
07:32 46.4 °F 45.0 °F 30.34 in Calm     95 % 0.00 in
07:38 46.5 °F 45.1 °F 30.34 in Calm     95 % 0.00 in
07:43 46.6 °F 45.2 °F 30.34 in Calm     95 % 0.00 in
07:48 46.8 °F 45.4 °F 30.35 in Calm     95 % 0.00 in
07:53 47.0 °F 45.6 °F 30.34 in Calm     95 % 0.00 in
07:58 47.3 °F 46.2 °F 30.34 in Calm     96 % 0.00 in
08:03 47.6 °F 46.5 °F 30.34 in Calm     96 % 0.00 in
08:08 47.9 °F 46.8 °F 30.34 in Calm     96 % 0.00 in
08:13 48.3 °F 47.2 °F 30.34 in Calm     96 % 0.00 in
08:18 48.7 °F 47.9 °F 30.34 in Calm     97 % 0.00 in
08:23 49.2 °F 48.4 °F 30.35 in Calm     97 % 0.00 in
08:29 49.6 °F 48.8 °F 30.35 in Calm     97 % 0.00 in
08:34 50.1 °F 49.3 °F 30.35 in Calm     97 % 0.00 in
08:39 50.7 °F 49.9 °F 30.35 in Calm     97 % 0.00 in
08:44 51.3 °F 50.5 °F 30.35 in NE 0.1 mph 1.2 mph 97 % 0.00 in
08:49 51.7 °F 51.2 °F 30.35 in Calm     98 % 0.00 in
08:54 52.0 °F 51.2 °F 30.35 in NE 0.3 mph 1.2 mph 97 % 0.00 in
08:59 52.3 °F 51.8 °F 30.35 in NE 0.1 mph 1.2 mph 98 % 0.00 in
09:04 52.6 °F 51.8 °F 30.35 in Calm   2.3 mph 97 % 0.00 in
09:09 52.9 °F 52.4 °F 30.35 in ESE 1.3 mph 1.3 mph 98 % 0.00 in
09:14 53.2 °F 52.4 °F 30.35 in Calm     97 % 0.00 in
09:20 53.4 °F 52.8 °F 30.35 in ESE 0.2 mph 1.2 mph 98 % 0.00 in
09:25 53.5 °F 52.9 °F 30.35 in ESE 0.8 mph 2.3 mph 98 % 0.00 in
09:30 53.8 °F 53.0 °F 30.35 in ESE 0.1 mph 1.2 mph 97 % 0.00 in
09:35 54.0 °F 53.2 °F 30.35 in ESE 0.4 mph 1.2 mph 97 % 0.00 in
09:40 54.4 °F 53.6 °F 30.36 in Calm   1.2 mph 97 % 0.00 in
09:45 54.7 °F 53.9 °F 30.35 in ESE 2.3 mph 3.5 mph 97 % 0.00 in
09:50 55.1 °F 54.3 °F 30.35 in Calm   1.2 mph 97 % 0.00 in
09:55 55.5 °F 54.4 °F 30.36 in ESE 0.6 mph 1.2 mph 96 % 0.00 in
10:00 56.3 °F 55.2 °F 30.35 in NE 0.6 mph 2.3 mph 96 % 0.00 in
10:05 57.2 °F 55.2 °F 30.36 in ENE 2.3 mph 3.5 mph 93 % 0.00 in
10:11 58.1 °F 54.9 °F 30.36 in ENE 1.0 mph 5.0 mph 89 % 0.00 in
10:16 58.9 °F 54.7 °F 30.36 in ENE 3.0 mph 7.0 mph 86 % 0.00 in
10:21 59.6 °F 54.1 °F 30.36 in ENE 2.0 mph 8.0 mph 82 % 0.00 in
10:26 60.1 °F 54.3 °F 30.36 in ENE 3.0 mph 7.0 mph 81 % 0.00 in
10:31 60.8 °F 55.0 °F 30.35 in ENE 1.0 mph 4.0 mph 81 % 0.00 in
10:36 61.4 °F 54.8 °F 30.35 in Calm   4.0 mph 79 % 0.00 in
10:41 61.8 °F 54.9 °F 30.36 in ENE 1.0 mph 5.0 mph 78 % 0.00 in
10:46 62.2 °F 54.2 °F 30.35 in Calm   4.0 mph 75 % 0.00 in
10:51 62.3 °F 53.9 °F 30.35 in Calm   1.0 mph 74 % 0.00 in
11:01 62.6 °F 55.3 °F 30.35 in Calm   1.2 mph 77 % 0.00 in
11:06 62.7 °F 55.4 °F 30.34 in Calm   1.0 mph 77 % 0.00 in
11:11 62.8 °F 55.1 °F 30.34 in Calm     76 % 0.00 in
11:16 62.9 °F 54.9 °F 30.34 in Calm     75 % 0.00 in
11:20 63.1 °F 55.4 °F 30.34 in ENE 0.1 mph 1.2 mph 76 % 0.00 in
11:26 63.1 °F 54.3 °F 30.34 in Calm   1.0 mph 73 % 0.00 in
11:31 63.2 °F 55.1 °F 30.34 in East 1.0 mph 3.0 mph 75 % 0.00 in
11:36 63.2 °F 54.8 °F 30.34 in Calm   2.0 mph 74 % 0.00 in
11:41 63.3 °F 54.9 °F 30.34 in Calm   3.0 mph 74 % 0.00 in
11:46 63.3 °F 54.1 °F 30.34 in South 1.0 mph 5.0 mph 72 % 0.00 in
11:50 63.4 °F 54.6 °F 30.33 in SE 0.5 mph 3.0 mph 73 % 0.00 in
11:56 63.4 °F 53.8 °F 30.33 in SSE 2.0 mph 7.0 mph 71 % 0.00 in
12:01 63.4 °F 54.6 °F 30.33 in SW 1.1 mph 3.5 mph 73 % 0.00 in
12:06 63.4 °F 54.6 °F 30.33 in West 1.0 mph 6.0 mph 73 % 0.00 in
12:11 63.4 °F 54.2 °F 30.33 in West 2.0 mph 5.0 mph 72 % 0.00 in
12:16 63.4 °F 53.4 °F 30.33 in Calm   1.0 mph 70 % 0.00 in
12:21 63.5 °F 54.3 °F 30.33 in WNW 1.0 mph 3.0 mph 72 % 0.00 in
12:26 63.5 °F 53.6 °F 30.33 in WSW 1.0 mph 6.0 mph 70 % 0.00 in
12:31 63.6 °F 53.6 °F 30.32 in SW 3.0 mph 6.0 mph 70 % 0.00 in
12:35 63.7 °F 54.5 °F 30.32 in WSW 0.9 mph 1.2 mph 72 % 0.00 in
12:41 63.7 °F 54.5 °F 30.32 in Calm   2.0 mph 72 % 0.00 in
12:46 63.7 °F 54.9 °F 30.32 in Calm   2.0 mph 73 % 0.00 in
12:51 63.6 °F 54.0 °F 30.32 in West 1.0 mph 3.0 mph 71 % 0.00 in
12:56 63.6 °F 54.4 °F 30.32 in Calm   3.0 mph 72 % 0.00 in
13:01 63.6 °F 54.4 °F 30.32 in NNW 0.1 mph 3.5 mph 72 % 0.00 in
13:11 63.6 °F 54.8 °F 30.32 in Calm     73 % 0.00 in
13:16 63.6 °F 54.8 °F 30.31 in SSE 1.2 mph 3.5 mph 73 % 0.00 in
13:21 63.6 °F 53.6 °F 30.30 in SSE 0.9 mph 3.0 mph 70 % 0.00 in
13:26 63.7 °F 54.5 °F 30.31 in Calm   1.2 mph 72 % 0.00 in
13:31 63.8 °F 53.8 °F 30.30 in SW 0.3 mph 1.2 mph 70 % 0.00 in
13:36 63.8 °F 53.0 °F 30.30 in WSW 1.9 mph 3.5 mph 68 % 0.00 in
13:46 63.9 °F 53.1 °F 30.30 in Calm   2.3 mph 68 % 0.00 in
13:52 64.0 °F 54.0 °F 30.29 in SW 0.2 mph 1.2 mph 70 % 0.00 in
13:57 64.0 °F 53.2 °F 30.29 in Calm   1.2 mph 68 % 0.00 in
14:02 64.1 °F 54.5 °F 30.29 in SW 0.1 mph 1.2 mph 71 % 0.00 in
14:07 64.2 °F 54.2 °F 30.29 in SSE 1.9 mph 4.0 mph 70 % 0.00 in
14:12 64.2 °F 53.4 °F 30.28 in SE 0.7 mph 2.3 mph 68 % 0.00 in
14:17 64.3 °F 53.5 °F 30.28 in Calm     68 % 0.00 in
14:22 64.4 °F 54.8 °F 30.28 in SE 1.0 mph 4.0 mph 71 % 0.00 in
14:27 64.5 °F 53.7 °F 30.27 in Calm     68 % 0.00 in
14:32 64.5 °F 54.9 °F 30.27 in SE 0.2 mph 1.0 mph 71 % 0.00 in
14:37 64.6 °F 53.8 °F 30.27 in SW 0.6 mph 2.0 mph 68 % 0.00 in
14:48 64.7 °F 54.3 °F 30.27 in Calm   1.2 mph 69 % 0.00 in
14:53 64.7 °F 53.9 °F 30.27 in Calm   1.2 mph 68 % 0.00 in
14:58 64.7 °F 53.9 °F 30.27 in WSW 0.1 mph 1.2 mph 68 % 0.00 in
15:03 64.6 °F 53.0 °F 30.27 in Calm     66 % 0.00 in
15:08 64.6 °F 54.6 °F 30.26 in Calm     70 % 0.00 in
15:13 64.6 °F 53.4 °F 30.26 in Calm   1.2 mph 67 % 0.00 in
15:18 64.7 °F 54.7 °F 30.26 in Calm   1.2 mph 70 % 0.00 in
15:23 64.8 °F 54.0 °F 30.25 in SW 1.7 mph 3.5 mph 68 % 0.00 in
15:28 64.8 °F 53.6 °F 30.25 in SW 0.4 mph 1.2 mph 67 % 0.00 in
15:39 65.0 °F 52.9 °F 30.25 in SSE 1.0 mph 3.5 mph 65 % 0.00 in
15:44 64.9 °F 53.3 °F 30.24 in SW 1.2 mph 2.3 mph 66 % 0.00 in
15:49 65.0 °F 55.0 °F 30.24 in SE 0.9 mph 3.5 mph 70 % 0.00 in
15:54 65.0 °F 54.2 °F 30.25 in Calm     68 % 0.00 in
15:59 65.0 °F 54.6 °F 30.25 in Calm     69 % 0.00 in
16:09 64.9 °F 54.1 °F 30.24 in Calm     68 % 0.00 in
16:14 65.0 °F 54.6 °F 30.24 in SE 1.0 mph 2.3 mph 69 % 0.00 in
16:19 64.9 °F 54.5 °F 30.24 in Calm   3.5 mph 69 % 0.00 in
16:30 64.8 °F 54.4 °F 30.23 in Calm   1.2 mph 69 % 0.00 in
16:35 64.7 °F 54.7 °F 30.23 in SE 0.2 mph 1.2 mph 70 % 0.00 in
16:40 64.6 °F 54.6 °F 30.23 in SE 0.2 mph 1.2 mph 70 % 0.00 in
16:45 64.5 °F 54.5 °F 30.23 in Calm     70 % 0.00 in
16:50 64.4 °F 54.4 °F 30.23 in SE 1.4 mph 2.3 mph 70 % 0.00 in
16:55 64.4 °F 54.0 °F 30.23 in SE 0.2 mph 3.5 mph 69 % 0.00 in
17:00 64.3 °F 54.3 °F 30.23 in SE 1.0 mph 2.3 mph 70 % 0.00 in
17:05 64.2 °F 54.6 °F 30.23 in SE 0.6 mph 3.5 mph 71 % 0.00 in
17:10 64.1 °F 54.1 °F 30.23 in Calm   1.2 mph 70 % 0.00 in
17:16 64.0 °F 54.4 °F 30.23 in Calm   1.0 mph 71 % 0.00 in
17:21 63.9 °F 54.7 °F 30.22 in Calm   1.0 mph 72 % 0.00 in
17:25 63.8 °F 54.2 °F 30.22 in SE 0.5 mph 1.0 mph 71 % 0.00 in
17:30 63.7 °F 54.5 °F 30.22 in Calm   3.0 mph 72 % 0.00 in
17:36 63.5 °F 54.7 °F 30.22 in Calm     73 % 0.00 in
17:40 63.3 °F 54.5 °F 30.22 in Calm     73 % 0.00 in
17:45 63.1 °F 54.3 °F 30.22 in Calm     73 % 0.00 in
17:50 63.0 °F 54.6 °F 30.22 in Calm     74 % 0.00 in
17:55 62.6 °F 54.2 °F 30.22 in Calm     74 % 0.00 in
18:01 62.3 °F 54.3 °F 30.22 in Calm     75 % 0.00 in
18:06 61.9 °F 54.2 °F 30.22 in Calm     76 % 0.00 in
18:11 61.6 °F 54.3 °F 30.21 in Calm     77 % 0.00 in
18:16 61.2 °F 54.3 °F 30.21 in Calm     78 % 0.00 in
18:21 60.8 °F 54.2 °F 30.21 in Calm     79 % 0.00 in
18:26 60.3 °F 54.1 °F 30.21 in Calm     80 % 0.00 in
18:31 59.9 °F 53.7 °F 30.21 in Calm     80 % 0.00 in
18:36 59.6 °F 53.8 °F 30.21 in Calm     81 % 0.00 in
18:41 59.3 °F 53.5 °F 30.21 in Calm     81 % 0.00 in
18:46 59.0 °F 53.2 °F 30.21 in SE 0.2 mph 1.2 mph 81 % 0.00 in
18:52 58.8 °F 53.0 °F 30.21 in SE 1.2 mph 3.5 mph 81 % 0.00 in
18:57 58.5 °F 53.0 °F 30.21 in SE 0.1 mph 1.2 mph 82 % 0.00 in
19:02 58.3 °F 52.8 °F 30.22 in SE 0.3 mph 2.0 mph 82 % 0.00 in
19:07 58.0 °F 52.9 °F 30.22 in Calm   1.2 mph 83 % 0.00 in
19:12 57.9 °F 52.8 °F 30.22 in SE 0.6 mph 2.3 mph 83 % 0.00 in
19:17 57.8 °F 53.0 °F 30.22 in Calm   1.2 mph 84 % 0.00 in
19:22 57.6 °F 52.8 °F 30.22 in SE 0.1 mph 2.3 mph 84 % 0.00 in
19:27 57.5 °F 53.0 °F 30.22 in SE 0.7 mph 2.3 mph 85 % 0.00 in
19:32 57.4 °F 53.2 °F 30.22 in SE 1.5 mph 2.3 mph 86 % 0.00 in
19:38 57.3 °F 53.1 °F 30.22 in SE 0.8 mph 1.2 mph 86 % 0.00 in
19:43 57.2 °F 53.4 °F 30.22 in SE 0.2 mph 2.3 mph 87 % 0.00 in
19:48 57.2 °F 53.4 °F 30.21 in SE 2.0 mph 3.5 mph 87 % 0.00 in
19:53 57.1 °F 53.3 °F 30.21 in SE 2.3 mph 3.5 mph 87 % 0.00 in
19:58 57.0 °F 53.5 °F 30.21 in SE 1.1 mph 3.5 mph 88 % 0.00 in
20:03 56.9 °F 53.4 °F 30.22 in SE 0.8 mph 2.3 mph 88 % 0.00 in
20:08 56.9 °F 53.4 °F 30.22 in SE 1.0 mph 1.2 mph 88 % 0.00 in
20:13 56.8 °F 53.6 °F 30.21 in SE 1.0 mph 2.3 mph 89 % 0.00 in
20:18 56.8 °F 53.6 °F 30.21 in SE 1.7 mph 3.5 mph 89 % 0.00 in
20:23 56.7 °F 53.5 °F 30.22 in SE 0.6 mph 2.3 mph 89 % 0.00 in
20:29 56.6 °F 53.4 °F 30.22 in Calm   1.2 mph 89 % 0.00 in
20:34 56.6 °F 53.4 °F 30.22 in SE 1.6 mph 3.0 mph 89 % 0.00 in
20:39 56.6 °F 53.7 °F 30.22 in SE 1.2 mph 3.5 mph 90 % 0.00 in
20:44 56.5 °F 53.6 °F 30.22 in SE 0.8 mph 2.3 mph 90 % 0.00 in
20:49 56.5 °F 53.9 °F 30.22 in SE 2.2 mph 3.5 mph 91 % 0.00 in
20:54 56.4 °F 53.8 °F 30.22 in SE 1.4 mph 3.5 mph 91 % 0.00 in
20:59 56.4 °F 53.8 °F 30.22 in SE 2.0 mph 3.0 mph 91 % 0.00 in
21:04 56.4 °F 53.8 °F 30.22 in SE 1.6 mph 2.3 mph 91 % 0.00 in
21:09 56.4 °F 53.8 °F 30.22 in SE 1.0 mph 2.3 mph 91 % 0.00 in
21:20 56.4 °F 54.1 °F 30.21 in SE 1.6 mph 3.5 mph 92 % 0.00 in
21:25 56.4 °F 54.1 °F 30.21 in SE 1.5 mph 3.5 mph 92 % 0.00 in
21:30 56.4 °F 54.1 °F 30.21 in SSE 1.6 mph 3.5 mph 92 % 0.00 in
21:35 56.4 °F 54.1 °F 30.21 in SE 3.0 mph 4.6 mph 92 % 0.00 in
21:40 56.5 °F 54.5 °F 30.20 in SE 2.0 mph 3.5 mph 93 % 0.00 in
21:45 56.6 °F 54.6 °F 30.20 in SSE 2.2 mph 3.5 mph 93 % 0.00 in
21:50 56.6 °F 54.6 °F 30.20 in SSE 1.2 mph 3.5 mph 93 % 0.00 in
21:55 56.6 °F 54.6 °F 30.20 in SSE 1.4 mph 3.5 mph 93 % 0.00 in
22:00 56.8 °F 54.8 °F 30.20 in SE 2.0 mph 4.6 mph 93 % 0.00 in
22:05 56.8 °F 54.8 °F 30.20 in SE 2.3 mph 4.0 mph 93 % 0.00 in
22:11 56.9 °F 54.9 °F 30.20 in SSE 2.4 mph 3.5 mph 93 % 0.00 in
22:16 56.9 °F 54.9 °F 30.19 in SSE 2.0 mph 3.0 mph 93 % 0.00 in
22:21 56.9 °F 54.9 °F 30.19 in SSE 2.0 mph 4.0 mph 93 % 0.00 in
22:26 56.9 °F 54.9 °F 30.19 in SSE 2.1 mph 4.6 mph 93 % 0.00 in
22:31 56.9 °F 54.9 °F 30.19 in SSE 1.0 mph 3.0 mph 93 % 0.00 in
22:36 56.9 °F 54.9 °F 30.19 in SSE 1.0 mph 3.0 mph 93 % 0.00 in
22:41 57.0 °F 55.0 °F 30.19 in SSE 1.0 mph 3.0 mph 93 % 0.00 in
22:46 57.0 °F 55.0 °F 30.19 in SSE 2.0 mph 3.0 mph 93 % 0.00 in
22:51 57.0 °F 55.0 °F 30.19 in Calm   3.0 mph 93 % 0.00 in
22:56 57.0 °F 55.0 °F 30.19 in SSE 1.0 mph 2.0 mph 93 % 0.00 in
23:01 57.0 °F 55.3 °F 30.19 in SSE 0.9 mph 2.3 mph 94 % 0.00 in
23:06 57.0 °F 55.0 °F 30.19 in Calm     93 % 0.00 in
23:11 56.9 °F 54.9 °F 30.19 in Calm   1.2 mph 93 % 0.00 in
23:16 56.9 °F 54.9 °F 30.18 in Calm     93 % 0.00 in
23:21 56.9 °F 54.9 °F 30.19 in Calm     93 % 0.00 in
23:26 56.8 °F 54.8 °F 30.18 in Calm   1.2 mph 93 % 0.00 in
23:31 56.7 °F 54.7 °F 30.18 in Calm   1.2 mph 93 % 0.00 in
23:36 56.7 °F 54.7 °F 30.18 in Calm   1.2 mph 93 % 0.00 in
23:41 56.6 °F 54.6 °F 30.18 in Calm     93 % 0.00 in
23:47 56.5 °F 54.5 °F 30.17 in Calm     93 % 0.00 in
23:52 56.5 °F 54.5 °F 30.17 in Calm     93 % 0.00 in
23:57 56.4 °F 54.4 °F 30.17 in Calm     93 % 0.00 in
Crab Meadow Weather
Compliments of Weather Underground - 3 mb

Script developed by  Jim McMurry - jmcmurry@mwt.net Adapted for the template by  Wim van der Kuil - Leuven-Template.eu

Weather Terms: Tornado Watch - Conditions are favorable for the development of severe thunderstorms and tornadoes in and close to the watch area. These watches are issued for large areas by the Storm Prediction Center in Norman, Oklahoma, and are usually valid for four to six hours.